Time;durP1;ratioP1;P1;durP2;ratioP2;P2;SDS_P1;SDS_P2;PMS_P1;PMS_P2;Temp;Humidity;BMP_temperature;BMP_pressure;BME280_temperature;BME280_humidity;BME280_pressure;Samples;Min_cycle;Max_cycle;Signal;HPM_P1;HPM_P2
2023/08/16 00:02:13;;;;;;;8.45;6.50;;;15.30;99.90;;;;;;5041000;28;20449;-76
2023/08/16 00:04:39;;;;;;;8.77;6.05;;;15.50;99.90;;;;;;5038842;28;20438;-77
2023/08/16 00:07:04;;;;;;;9.18;5.65;;;15.40;99.90;;;;;;5052246;28;20435;-76
2023/08/16 00:09:30;;;;;;;8.70;6.13;;;15.50;99.90;;;;;;5054589;28;20410;-76
2023/08/16 00:11:56;;;;;;;10.27;6.17;;;15.60;99.90;;;;;;5039423;28;20487;-76
2023/08/16 00:14:22;;;;;;;10.73;6.70;;;15.30;99.90;;;;;;5032817;28;20417;-76
2023/08/16 00:16:49;;;;;;;8.88;6.53;;;15.40;99.90;;;;;;5033776;28;20474;-76
2023/08/16 00:19:14;;;;;;;9.60;6.88;;;15.20;99.90;;;;;;5069112;28;20521;-76
2023/08/16 00:21:40;;;;;;;8.95;5.78;;;15.40;99.90;;;;;;5034431;28;20504;-76
2023/08/16 00:24:07;;;;;;;8.93;5.38;;;15.30;99.90;;;;;;5025857;28;20419;-76
2023/08/16 00:26:33;;;;;;;6.68;4.85;;;15.30;99.90;;;;;;5037648;28;20400;-76
2023/08/16 00:28:59;;;;;;;7.53;5.20;;;15.40;99.90;;;;;;5051123;28;20724;-76
2023/08/16 00:31:25;;;;;;;7.72;4.80;;;15.10;99.90;;;;;;5027413;28;20417;-77
2023/08/16 00:33:51;;;;;;;8.30;4.80;;;15.00;99.90;;;;;;5052560;28;20426;-76
2023/08/16 00:36:17;;;;;;;8.20;4.95;;;15.10;99.90;;;;;;5016922;28;20425;-76
2023/08/16 00:38:42;;;;;;;5.93;4.82;;;15.00;99.90;;;;;;5031290;28;20941;-76
2023/08/16 00:41:09;;;;;;;6.47;4.90;;;14.90;99.90;;;;;;5060863;28;20417;-76
2023/08/16 00:43:35;;;;;;;7.25;4.80;;;14.80;99.90;;;;;;5035885;28;20480;-76
2023/08/16 00:46:03;;;;;;;6.65;4.70;;;15.00;99.90;;;;;;5053318;28;20486;-76
2023/08/16 00:48:31;;;;;;;7.75;5.15;;;14.80;99.90;;;;;;5033327;28;20413;-76
2023/08/16 00:50:58;;;;;;;7.15;5.47;;;14.70;99.90;;;;;;5017785;28;20419;-76
2023/08/16 00:53:26;;;;;;;7.50;4.90;;;15.00;99.90;;;;;;5033049;28;20427;-76
2023/08/16 00:55:52;;;;;;;7.53;4.70;;;14.60;99.90;;;;;;5051945;28;20419;-75
2023/08/16 00:58:18;;;;;;;7.60;5.17;;;14.70;99.90;;;;;;5049449;28;20469;-75
2023/08/16 01:00:44;;;;;;;9.10;5.20;;;14.70;99.90;;;;;;5033660;28;20939;-75
2023/08/16 01:03:10;;;;;;;6.90;5.00;;;14.40;99.90;;;;;;5017333;28;21076;-75
2023/08/16 01:05:36;;;;;;;8.70;5.10;;;14.80;99.90;;;;;;5031594;28;20426;-75
2023/08/16 01:08:02;;;;;;;7.68;5.28;;;14.50;99.90;;;;;;5068201;28;20467;-75
2023/08/16 01:11:07;;;;;;;7.75;5.53;;;14.60;99.90;;;;;;5039305;28;20435;-75
2023/08/16 01:13:55;;;;;;;10.27;6.70;;;14.30;99.90;;;;;;5053924;28;20914;-75
2023/08/16 01:16:23;;;;;;;10.70;7.00;;;14.30;99.90;;;;;;5037910;28;20915;-75
2023/08/16 01:18:52;;;;;;;11.77;7.47;;;14.40;99.90;;;;;;5026728;28;20503;-75
2023/08/16 01:21:19;;;;;;;8.65;6.57;;;14.20;99.90;;;;;;5036948;28;20513;-75
2023/08/16 01:24:12;;;;;;;9.75;7.00;;;14.40;99.90;;;;;;5050899;28;20411;-76
2023/08/16 01:26:38;;;;;;;10.80;8.10;;;14.40;99.90;;;;;;5024236;28;20425;-77
2023/08/16 01:29:05;;;;;;;11.53;8.90;;;14.40;99.90;;;;;;5041033;28;20423;-76
2023/08/16 01:31:33;;;;;;;12.35;7.85;;;14.60;99.90;;;;;;5021177;28;20745;-76
2023/08/16 01:33:59;;;;;;;11.23;8.13;;;14.30;99.90;;;;;;5071619;28;20448;-76
2023/08/16 01:36:26;;;;;;;10.30;8.20;;;14.60;99.90;;;;;;5031475;28;20417;-76
2023/08/16 01:38:52;;;;;;;11.68;7.45;;;14.50;99.90;;;;;;5040462;28;20423;-76
2023/08/16 01:41:44;;;;;;;10.52;6.97;;;14.50;99.90;;;;;;5056661;28;20457;-76
2023/08/16 01:44:11;;;;;;;10.93;7.07;;;14.60;99.90;;;;;;5039695;28;20422;-76
2023/08/16 01:46:38;;;;;;;10.43;6.60;;;14.50;99.90;;;;;;5053533;28;20415;-75
2023/08/16 01:49:05;;;;;;;10.80;6.88;;;14.50;99.90;;;;;;5050042;28;20428;-76
2023/08/16 01:51:31;;;;;;;10.05;7.28;;;14.50;99.90;;;;;;5037250;28;20411;-75
2023/08/16 01:53:57;;;;;;;10.02;7.00;;;14.50;99.90;;;;;;5049292;28;20499;-76
2023/08/16 01:56:23;;;;;;;10.02;7.10;;;14.40;99.90;;;;;;5036549;28;20427;-76
2023/08/16 01:58:49;;;;;;;9.25;7.20;;;14.40;99.90;;;;;;5037104;28;20424;-76
2023/08/16 02:01:15;;;;;;;8.90;6.20;;;14.30;99.90;;;;;;5036340;28;20411;-76
2023/08/16 02:03:41;;;;;;;7.97;5.47;;;14.40;99.90;;;;;;5036570;28;20417;-76
2023/08/16 02:06:07;;;;;;;10.40;6.47;;;14.30;99.90;;;;;;5041037;28;20419;-76
2023/08/16 02:08:32;;;;;;;8.68;6.75;;;14.20;99.90;;;;;;5055022;28;20420;-76
2023/08/16 02:10:58;;;;;;;10.10;7.35;;;14.40;99.90;;;;;;5052150;28;20934;-76
2023/08/16 02:13:24;;;;;;;10.00;6.85;;;14.30;99.90;;;;;;5033791;28;21661;-75
2023/08/16 02:15:49;;;;;;;11.40;7.30;;;14.20;99.90;;;;;;5000156;28;20424;-75
2023/08/16 02:18:15;;;;;;;10.07;6.60;;;14.40;99.90;;;;;;5054561;28;20427;-76
2023/08/16 02:20:41;;;;;;;8.90;6.80;;;14.20;99.90;;;;;;5073056;28;20806;-76
2023/08/16 02:23:07;;;;;;;10.38;7.20;;;14.20;99.90;;;;;;5068920;28;20761;-76
2023/08/16 02:25:33;;;;;;;9.63;7.80;;;14.30;99.90;;;;;;5053183;28;20417;-76
2023/08/16 02:27:59;;;;;;;11.67;8.53;;;14.00;99.90;;;;;;5043303;28;20482;-76
2023/08/16 02:30:25;;;;;;;11.70;8.33;;;14.00;99.90;;;;;;5048809;28;20433;-76
2023/08/16 02:32:52;;;;;;;14.57;9.00;;;14.20;99.90;;;;;;5048235;28;20948;-76
2023/08/16 02:35:18;;;;;;;12.68;7.63;;;14.10;99.90;;;;;;5057329;28;20410;-76
2023/08/16 02:37:43;;;;;;;11.10;8.13;;;14.10;99.90;;;;;;5040084;28;20423;-76
2023/08/16 02:40:10;;;;;;;11.27;8.10;;;14.10;99.90;;;;;;5054549;28;20853;-75
2023/08/16 02:42:36;;;;;;;13.57;8.13;;;14.00;99.90;;;;;;5056558;28;20424;-76
2023/08/16 02:45:01;;;;;;;11.93;8.20;;;14.00;99.90;;;;;;5041195;28;20966;-76
2023/08/16 02:47:27;;;;;;;12.77;8.50;;;14.00;99.90;;;;;;5034976;28;20428;-76
2023/08/16 02:49:53;;;;;;;13.33;9.40;;;14.00;99.90;;;;;;5038929;28;20432;-76
2023/08/16 02:52:19;;;;;;;12.23;8.57;;;14.10;99.90;;;;;;5037275;28;20417;-76
2023/08/16 02:54:44;;;;;;;10.98;7.95;;;14.00;99.90;;;;;;5042342;28;20470;-77
2023/08/16 02:57:10;;;;;;;10.65;7.95;;;14.10;99.90;;;;;;5022133;28;20425;-77
2023/08/16 02:59:46;;;;;;;13.30;7.80;;;14.00;99.90;;;;;;5021958;28;20482;-76
2023/08/16 03:02:13;;;;;;;10.55;6.88;;;13.80;99.90;;;;;;5040095;28;20425;-76
2023/08/16 03:04:41;;;;;;;10.85;7.28;;;13.80;99.90;;;;;;5046503;28;20921;-76
2023/08/16 03:07:08;;;;;;;11.13;7.45;;;14.00;99.90;;;;;;5029663;28;20942;-76
2023/08/16 03:09:34;;;;;;;10.83;6.83;;;13.80;99.90;;;;;;5041801;28;20962;-76
2023/08/16 03:12:00;;;;;;;10.48;6.90;;;13.70;99.90;;;;;;5057668;28;20399;-74
2023/08/16 03:14:28;;;;;;;9.48;6.90;;;13.70;99.90;;;;;;5054144;28;20409;-76
2023/08/16 03:16:54;;;;;;;9.13;6.53;;;13.70;99.90;;;;;;5057176;28;20420;-76
2023/08/16 03:19:19;;;;;;;10.00;6.90;;;13.90;99.90;;;;;;5072893;28;20423;-75
2023/08/16 03:21:45;;;;;;;9.83;7.10;;;13.60;99.90;;;;;;5056488;28;20482;-76
2023/08/16 03:24:11;;;;;;;8.90;6.93;;;13.80;99.90;;;;;;5054678;28;20426;-75
2023/08/16 03:26:37;;;;;;;10.20;7.03;;;13.70;99.90;;;;;;5054290;28;20496;-75
2023/08/16 03:29:03;;;;;;;13.25;7.25;;;13.80;99.90;;;;;;5022251;28;20430;-75
2023/08/16 03:31:29;;;;;;;11.35;7.40;;;13.70;99.90;;;;;;5051632;28;20765;-75
2023/08/16 03:33:55;;;;;;;10.07;7.25;;;13.70;99.90;;;;;;5039615;28;21058;-75
2023/08/16 03:36:21;;;;;;;14.03;8.20;;;13.70;99.90;;;;;;5038743;28;20541;-76
2023/08/16 03:38:46;;;;;;;11.82;8.10;;;13.70;99.90;;;;;;5038782;28;20420;-76
2023/08/16 03:41:12;;;;;;;13.05;8.52;;;13.50;99.90;;;;;;5030572;28;20448;-76
2023/08/16 03:43:38;;;;;;;15.17;8.70;;;13.60;99.90;;;;;;5018742;28;20405;-76
2023/08/16 03:46:04;;;;;;;17.03;9.13;;;14.30;99.90;;;;;;5043569;28;20408;-75
2023/08/16 03:48:30;;;;;;;19.60;11.13;;;13.60;99.90;;;;;;5034573;28;20413;-75
2023/08/16 03:50:56;;;;;;;20.65;10.73;;;13.40;99.90;;;;;;5028194;28;20974;-76
2023/08/16 03:53:22;;;;;;;18.83;10.80;;;13.60;99.90;;;;;;5053652;28;20415;-75
2023/08/16 03:55:48;;;;;;;21.65;11.18;;;;;;;;;;5050301;28;20434;-75
2023/08/16 03:58:14;;;;;;;18.63;10.33;;;13.50;99.90;;;;;;5034865;28;20453;-76
2023/08/16 04:00:40;;;;;;;17.37;9.43;;;13.20;99.90;;;;;;5040248;28;20467;-76
2023/08/16 04:03:06;;;;;;;18.98;10.25;;;13.40;99.90;;;;;;5038261;28;20457;-76
2023/08/16 04:05:33;;;;;;;19.90;9.95;;;13.20;99.90;;;;;;5049500;28;20451;-75
2023/08/16 04:07:58;;;;;;;21.50;10.43;;;13.30;99.90;;;;;;5051747;28;20415;-76
2023/08/16 04:10:24;;;;;;;22.57;10.50;;;13.20;99.90;;;;;;5050357;28;20467;-76
2023/08/16 04:12:50;;;;;;;25.80;12.03;;;13.30;99.90;;;;;;5069949;28;20473;-76
2023/08/16 04:15:16;;;;;;;21.70;10.48;;;13.20;99.90;;;;;;5053049;28;20415;-76
2023/08/16 04:17:41;;;;;;;16.35;9.77;;;13.30;99.90;;;;;;5068092;28;20953;-75
2023/08/16 04:20:07;;;;;;;16.83;9.93;;;13.10;99.90;;;;;;5054465;28;20899;-75
2023/08/16 04:22:34;;;;;;;20.23;11.38;;;13.40;99.90;;;;;;5036564;28;20867;-76
2023/08/16 04:25:01;;;;;;;19.13;10.70;;;13.10;99.90;;;;;;5053928;28;20395;-76
2023/08/16 04:27:28;;;;;;;23.75;11.60;;;;;;;;;;5038155;28;20419;-76
2023/08/16 04:29:53;;;;;;;25.45;12.40;;;12.90;99.90;;;;;;5049877;28;20435;-76
2023/08/16 04:32:19;;;;;;;19.10;11.80;;;13.20;99.90;;;;;;5028440;28;20413;-76
2023/08/16 04:34:47;;;;;;;17.10;11.07;;;13.10;99.90;;;;;;5051045;28;20405;-76
2023/08/16 04:37:13;;;;;;;18.80;10.57;;;13.00;99.90;;;;;;5028412;28;20499;-75
2023/08/16 04:39:39;;;;;;;18.52;10.30;;;13.20;99.90;;;;;;5050661;28;20481;-75
2023/08/16 04:42:04;;;;;;;20.17;10.23;;;13.10;99.90;;;;;;5026258;28;20432;-76
2023/08/16 04:44:30;;;;;;;19.85;10.35;;;13.00;99.90;;;;;;5034392;28;20409;-76
2023/08/16 04:46:56;;;;;;;17.10;9.97;;;13.00;99.90;;;;;;5050336;28;20926;-75
2023/08/16 04:49:22;;;;;;;16.13;9.67;;;13.10;99.90;;;;;;5054300;28;20486;-76
2023/08/16 04:51:47;;;;;;;14.73;8.73;;;12.90;99.90;;;;;;5051020;28;20419;-76
2023/08/16 04:54:13;;;;;;;14.73;9.03;;;13.00;99.90;;;;;;5054155;28;20518;-76
2023/08/16 04:56:39;;;;;;;15.90;9.05;;;12.90;99.90;;;;;;5049915;28;20868;-75
2023/08/16 04:59:05;;;;;;;14.38;8.75;;;13.00;99.90;;;;;;5019362;28;20920;-76
2023/08/16 05:01:31;;;;;;;14.63;9.40;;;13.20;99.90;;;;;;5049261;28;20429;-76
2023/08/16 05:03:56;;;;;;;20.20;9.50;;;13.00;99.90;;;;;;5046790;28;20424;-76
2023/08/16 05:06:22;;;;;;;16.65;8.75;;;13.20;99.90;;;;;;5051058;28;20415;-76
2023/08/16 05:08:48;;;;;;;13.35;8.00;;;13.20;99.90;;;;;;5017480;28;21013;-76
2023/08/16 05:11:13;;;;;;;14.25;9.18;;;13.30;99.90;;;;;;5034361;28;20470;-77
2023/08/16 05:13:39;;;;;;;14.10;8.63;;;13.30;99.90;;;;;;5042722;28;20504;-75
2023/08/16 05:16:05;;;;;;;15.57;9.50;;;13.50;99.90;;;;;;5013425;28;20415;-77
2023/08/16 05:18:31;;;;;;;12.73;7.67;;;13.00;99.90;;;;;;5021501;28;20463;-76
2023/08/16 05:20:59;;;;;;;12.48;7.65;;;13.00;99.90;;;;;;5019924;28;20462;-76
2023/08/16 05:23:25;;;;;;;13.15;7.75;;;;;;;;;;5033408;28;20616;-76
2023/08/16 05:25:50;;;;;;;13.13;8.23;;;13.40;99.90;;;;;;5057382;28;20407;-75
2023/08/16 05:28:16;;;;;;;11.17;7.57;;;13.40;99.90;;;;;;5068898;28;21957;-75
2023/08/16 05:30:42;;;;;;;12.05;7.93;;;13.30;99.90;;;;;;5070838;28;20467;-76
2023/08/16 05:33:07;;;;;;;10.95;7.95;;;13.30;99.90;;;;;;5066533;28;20415;-75
2023/08/16 05:35:34;;;;;;;14.50;8.60;;;;;;;;;;5033474;28;20415;-76
2023/08/16 05:38:01;;;;;;;14.10;7.80;;;13.60;99.90;;;;;;5036958;28;20422;-76
2023/08/16 05:40:27;;;;;;;12.13;7.45;;;13.70;99.90;;;;;;5068806;28;20896;-75
2023/08/16 05:42:54;;;;;;;11.73;7.70;;;13.90;99.90;;;;;;5024683;28;20897;-75
2023/08/16 05:45:21;;;;;;;13.18;8.27;;;14.00;99.90;;;;;;5010344;28;20417;-75
2023/08/16 05:47:47;;;;;;;11.15;7.35;;;14.10;99.90;;;;;;5027557;28;20427;-76
2023/08/16 05:50:13;;;;;;;14.23;7.50;;;14.20;99.90;;;;;;5048546;28;20413;-75
2023/08/16 05:52:38;;;;;;;10.93;8.03;;;14.40;99.90;;;;;;5041574;28;20993;-75
2023/08/16 05:55:04;;;;;;;13.05;8.75;;;14.30;99.90;;;;;;5025595;28;20420;-75
2023/08/16 05:57:30;;;;;;;13.73;9.73;;;14.80;99.90;;;;;;5027053;28;20798;-75
2023/08/16 05:59:56;;;;;;;16.90;10.45;;;14.80;99.90;;;;;;4999088;28;20426;-75
2023/08/16 06:02:23;;;;;;;20.00;10.70;;;15.00;99.90;;;;;;5048377;28;20818;-75
2023/08/16 06:04:49;;;;;;;13.18;9.20;;;15.10;99.90;;;;;;5062808;28;20439;-74
2023/08/16 06:07:16;;;;;;;14.00;9.65;;;15.00;99.90;;;;;;5066834;28;20412;-75
2023/08/16 06:09:42;;;;;;;12.90;9.60;;;15.50;99.90;;;;;;5032395;28;20423;-75
2023/08/16 06:12:08;;;;;;;13.80;9.25;;;15.80;99.90;;;;;;5051255;28;20419;-75
2023/08/16 06:14:33;;;;;;;14.57;9.55;;;15.60;99.90;;;;;;5035509;28;20422;-75
2023/08/16 06:16:59;;;;;;;13.05;9.25;;;16.10;99.90;;;;;;5046501;28;20423;-76
2023/08/16 06:19:25;;;;;;;13.70;9.32;;;16.10;99.90;;;;;;5014745;28;20940;-76
2023/08/16 06:21:51;;;;;;;17.20;10.70;;;16.30;99.90;;;;;;5035386;28;20423;-75
2023/08/16 06:24:17;;;;;;;16.75;10.68;;;16.00;99.90;;;;;;5043965;28;20412;-76
2023/08/16 06:26:42;;;;;;;15.60;11.15;;;16.30;99.90;;;;;;5050735;28;20421;-76
2023/08/16 06:29:08;;;;;;;14.73;10.37;;;16.20;99.90;;;;;;5042870;28;20420;-76
2023/08/16 06:31:34;;;;;;;15.13;10.07;;;16.50;99.90;;;;;;5036226;28;20788;-75
2023/08/16 06:34:00;;;;;;;14.80;10.60;;;16.60;99.90;;;;;;5029353;28;20433;-75
2023/08/16 06:36:26;;;;;;;13.07;9.32;;;16.80;99.90;;;;;;5022758;28;20421;-75
2023/08/16 06:38:53;;;;;;;12.27;8.52;;;17.00;99.90;;;;;;5052853;28;20425;-75
2023/08/16 06:41:19;;;;;;;11.45;7.95;;;16.80;99.90;;;;;;5016480;28;20422;-75
2023/08/16 06:43:45;;;;;;;11.63;7.43;;;16.80;99.90;;;;;;5049933;28;20466;-76
2023/08/16 06:46:11;;;;;;;12.67;7.80;;;17.10;99.90;;;;;;5054561;28;20464;-75
2023/08/16 06:48:37;;;;;;;12.53;7.80;;;17.40;99.90;;;;;;5066819;28;20529;-76
2023/08/16 06:51:04;;;;;;;12.03;8.43;;;17.20;99.90;;;;;;5067730;28;20419;-76
2023/08/16 06:53:32;;;;;;;11.48;7.38;;;17.30;99.90;;;;;;5061284;28;20426;-76
2023/08/16 06:55:58;;;;;;;12.90;7.75;;;17.70;99.90;;;;;;5043230;28;20434;-75
2023/08/16 06:58:24;;;;;;;9.98;7.30;;;17.80;99.90;;;;;;5051924;28;20421;-75
2023/08/16 07:00:50;;;;;;;12.27;8.43;;;18.10;99.90;;;;;;5065386;28;20970;-74
2023/08/16 07:03:17;;;;;;;11.60;8.00;;;17.70;99.90;;;;;;5068384;28;20445;-75
2023/08/16 07:05:43;;;;;;;12.80;8.50;;;17.70;99.90;;;;;;5061467;28;20419;-74
2023/08/16 07:08:09;;;;;;;11.17;7.63;;;17.60;99.90;;;;;;5069446;28;20428;-74
2023/08/16 07:10:35;;;;;;;10.90;7.80;;;17.80;99.90;;;;;;5053187;28;20418;-74
2023/08/16 07:13:02;;;;;;;10.43;7.90;;;17.90;99.90;;;;;;5050214;28;20423;-74
2023/08/16 07:15:28;;;;;;;10.35;7.50;;;18.00;99.90;;;;;;5045991;28;20726;-75
2023/08/16 07:17:54;;;;;;;12.63;6.70;;;16.80;99.90;;;;;;5054543;28;20582;-74
2023/08/16 07:20:20;;;;;;;9.13;6.77;;;18.10;99.90;;;;;;5065368;28;20819;-76
2023/08/16 07:22:46;;;;;;;12.27;6.25;;;18.50;99.90;;;;;;5037807;28;20421;-76
2023/08/16 07:25:12;;;;;;;9.75;6.45;;;18.40;99.90;;;;;;5034608;28;20852;-76
2023/08/16 07:27:39;;;;;;;7.93;5.90;;;18.50;99.90;;;;;;5048165;28;20471;-76
2023/08/16 07:30:05;;;;;;;7.93;5.88;;;19.20;99.90;;;;;;5066595;28;20911;-76
2023/08/16 07:32:31;;;;;;;10.88;5.50;;;19.00;99.90;;;;;;5047180;28;20431;-76
2023/08/16 07:34:57;;;;;;;8.07;4.93;;;19.30;99.90;;;;;;5049416;28;20434;-76
2023/08/16 07:37:23;;;;;;;7.25;4.40;;;19.40;99.90;;;;;;5055146;28;20466;-75
2023/08/16 07:39:49;;;;;;;6.20;3.10;;;19.60;99.90;;;;;;5026126;28;20580;-76
2023/08/16 07:42:18;;;;;;;7.80;3.90;;;19.70;99.90;;;;;;5026873;28;20419;-75
2023/08/16 07:44:44;;;;;;;6.50;3.25;;;19.80;99.90;;;;;;5033429;28;20430;-75
2023/08/16 07:47:11;;;;;;;12.57;2.70;;;19.90;99.90;;;;;;5053837;28;20470;-76
2023/08/16 07:49:37;;;;;;;4.95;2.17;;;20.30;99.90;;;;;;5023349;28;20443;-76
2023/08/16 07:52:03;;;;;;;6.32;2.70;;;19.30;99.90;;;;;;5056116;28;20512;-77
2023/08/16 07:54:28;;;;;;;4.47;2.47;;;20.30;99.90;;;;;;5050323;28;20533;-78
2023/08/16 07:56:54;;;;;;;5.05;2.42;;;20.30;99.90;;;;;;5030325;28;20498;-77
2023/08/16 07:59:20;;;;;;;6.07;2.72;;;20.30;99.90;;;;;;5035981;28;20423;-79
2023/08/16 08:01:46;;;;;;;11.27;3.20;;;20.20;99.90;;;;;;5029538;28;20432;-75
2023/08/16 08:04:11;;;;;;;4.95;3.00;;;20.60;99.90;;;;;;5034674;28;20394;-77
2023/08/16 08:06:37;;;;;;;4.47;2.33;;;20.30;99.90;;;;;;5049086;28;20489;-85
2023/08/16 08:09:04;;;;;;;3.90;2.58;;;20.50;99.90;;;;;;5054348;28;20446;-80
2023/08/16 08:11:29;;;;;;;5.63;2.65;;;20.90;99.90;;;;;;5035827;28;20431;-79
2023/08/16 08:13:57;;;;;;;6.05;2.70;;;20.30;99.90;;;;;;5054928;28;20518;-80
2023/08/16 08:16:23;;;;;;;6.35;2.67;;;20.60;99.90;;;;;;5053462;28;20416;-77
2023/08/16 08:18:49;;;;;;;5.50;2.65;;;21.10;99.90;;;;;;5050015;28;20970;-76
2023/08/16 08:21:15;;;;;;;7.53;2.70;;;20.60;99.90;;;;;;5053676;28;20499;-75
2023/08/16 08:23:41;;;;;;;6.05;2.50;;;21.10;99.90;;;;;;5054432;28;20396;-76
2023/08/16 08:26:06;;;;;;;5.65;2.58;;;21.10;99.90;;;;;;5032544;28;20463;-75
2023/08/16 08:28:32;;;;;;;5.38;2.38;;;21.40;99.90;;;;;;5048748;28;20469;-74
2023/08/16 08:31:02;;;;;;;4.88;2.40;;;21.40;99.90;;;;;;5036877;28;20792;-74
2023/08/16 08:33:29;;;;;;;5.93;2.30;;;21.40;99.90;;;;;;5019670;28;20567;-75
2023/08/16 08:35:56;;;;;;;4.13;2.08;;;20.90;99.90;;;;;;5017666;28;20949;-74
2023/08/16 08:38:25;;;;;;;3.92;2.05;;;21.20;99.90;;;;;;5050716;28;20935;-75
2023/08/16 08:40:58;;;;;;;5.53;2.28;;;21.40;99.90;;;;;;5052991;28;20438;-75
2023/08/16 08:43:37;;;;;;;5.35;2.10;;;21.40;99.90;;;;;;5052965;28;20506;-74
2023/08/16 08:46:06;;;;;;;4.88;2.40;;;21.90;99.90;;;;;;5052209;28;20449;-74
2023/08/16 08:48:33;;;;;;;5.07;2.33;;;21.70;99.90;;;;;;5039062;28;20432;-75
2023/08/16 08:51:00;;;;;;;5.43;2.10;;;21.90;99.90;;;;;;5037317;28;20413;-76
2023/08/16 08:53:27;;;;;;;4.37;1.93;;;22.50;99.90;;;;;;5050370;28;20496;-75
2023/08/16 08:55:55;;;;;;;4.90;1.90;;;21.70;99.90;;;;;;5035517;28;20421;-76
2023/08/16 08:58:22;;;;;;;4.13;1.90;;;21.70;99.90;;;;;;5026181;28;20472;-75
2023/08/16 09:00:52;;;;;;;5.57;1.60;;;21.80;99.90;;;;;;5037287;28;20500;-75
2023/08/16 09:03:23;;;;;;;6.32;1.90;;;22.20;99.90;;;;;;5050695;28;20500;-76
2023/08/16 09:05:55;;;;;;;3.47;1.70;;;22.10;99.90;;;;;;5014727;28;20424;-76
2023/08/16 09:08:21;;;;;;;4.63;1.48;;;22.60;99.90;;;;;;5013421;28;20425;-77
2023/08/16 09:10:47;;;;;;;4.00;1.58;;;22.90;99.90;;;;;;4997614;28;20456;-76
2023/08/16 09:13:14;;;;;;;3.45;1.50;;;23.00;99.90;;;;;;5022530;28;20424;-78
2023/08/16 09:15:40;;;;;;;3.95;1.67;;;23.10;99.90;;;;;;5033353;28;20458;-75
2023/08/16 09:18:07;;;;;;;5.15;1.90;;;22.50;99.90;;;;;;5012182;28;20425;-75
2023/08/16 09:20:32;;;;;;;3.92;1.90;;;23.00;99.90;;;;;;5019955;28;20426;-75
2023/08/16 09:22:58;;;;;;;4.43;1.75;;;22.40;99.90;;;;;;5027099;28;20466;-75
2023/08/16 09:25:24;;;;;;;2.70;1.63;;;22.90;99.90;;;;;;4998144;28;20791;-75
2023/08/16 09:27:52;;;;;;;4.87;1.80;;;22.70;99.90;;;;;;5020757;28;20426;-75
2023/08/16 09:30:18;;;;;;;4.00;2.10;;;22.40;99.90;;;;;;5031581;28;20774;-74
2023/08/16 09:32:45;;;;;;;3.53;1.70;;;22.80;99.90;;;;;;5030028;28;20448;-75
2023/08/16 09:35:16;;;;;;;3.30;1.70;;;22.80;99.90;;;;;;5027637;28;20427;-75
2023/08/16 09:37:42;;;;;;;3.90;1.77;;;23.10;99.90;;;;;;5025691;28;20429;-75
2023/08/16 09:40:11;;;;;;;4.85;1.80;;;23.00;99.90;;;;;;5001897;28;20426;-75
2023/08/16 09:42:37;;;;;;;3.53;1.70;;;22.80;99.90;;;;;;5023876;28;20913;-75
2023/08/16 09:45:03;;;;;;;2.63;1.60;;;22.80;99.90;;;;;;5032252;28;20421;-75
2023/08/16 09:47:30;;;;;;;4.47;1.70;;;24.70;99.90;;;;;;5030252;28;20447;-74
2023/08/16 09:49:58;;;;;;;3.20;1.40;;;23.20;99.90;;;;;;5004363;28;20932;-75
2023/08/16 09:52:25;;;;;;;3.20;1.50;;;23.30;99.90;;;;;;5032605;28;20425;-75
2023/08/16 09:54:55;;;;;;;3.10;1.30;;;23.20;99.90;;;;;;5046094;28;20413;-75
2023/08/16 09:57:21;;;;;;;4.93;1.67;;;23.60;99.90;;;;;;5028263;28;20427;-75
2023/08/16 09:59:48;;;;;;;5.97;2.00;;;23.50;99.90;;;;;;5020881;28;20420;-75
2023/08/16 10:02:14;;;;;;;5.05;2.15;;;23.60;99.90;;;;;;4999096;28;20750;-75
2023/08/16 10:04:40;;;;;;;6.25;1.75;;;23.50;99.90;;;;;;5017231;28;20417;-75
2023/08/16 10:07:08;;;;;;;3.75;1.42;;;23.40;99.90;;;;;;5022534;28;20489;-75
2023/08/16 10:09:34;;;;;;;3.95;1.40;;;23.20;99.90;;;;;;5049295;28;20436;-75
2023/08/16 10:12:04;;;;;;;3.20;1.30;;;23.30;99.90;;;;;;5010117;28;20949;-74
2023/08/16 10:14:31;;;;;;;2.33;1.10;;;23.00;99.90;;;;;;5033746;28;20421;-75
2023/08/16 10:17:01;;;;;;;4.20;1.33;;;23.00;99.90;;;;;;5018941;28;20446;-75
2023/08/16 10:19:31;;;;;;;2.72;1.50;;;23.40;99.90;;;;;;5033852;28;20420;-74
2023/08/16 10:21:58;;;;;;;4.80;1.60;;;23.70;99.90;;;;;;5009673;28;20502;-74
2023/08/16 10:24:24;;;;;;;4.47;1.20;;;23.90;99.90;;;;;;5020921;28;20469;-75
2023/08/16 10:26:51;;;;;;;4.10;1.70;;;24.00;99.90;;;;;;5022704;28;20435;-74
2023/08/16 10:29:22;;;;;;;3.88;1.48;;;24.00;99.90;;;;;;5036602;28;20435;-74
2023/08/16 10:31:51;;;;;;;2.92;1.50;;;23.80;99.90;;;;;;5011323;28;20421;-73
2023/08/16 10:34:20;;;;;;;2.40;1.30;;;23.90;99.90;;;;;;5025810;28;20931;-73
2023/08/16 10:36:46;;;;;;;3.43;1.23;;;24.00;99.90;;;;;;5016249;28;20422;-75
2023/08/16 10:39:23;;;;;;;5.10;1.20;;;24.10;99.90;;;;;;5036018;28;20763;-74
2023/08/16 10:41:53;;;;;;;3.67;1.25;;;24.00;99.90;;;;;;5034956;28;20436;-74
2023/08/16 10:44:23;;;;;;;5.03;1.55;;;24.00;99.90;;;;;;5020671;28;20425;-74
2023/08/16 10:46:50;;;;;;;2.88;1.10;;;24.00;99.90;;;;;;5014256;28;20913;-74
2023/08/16 10:49:18;;;;;;;3.30;1.30;;;24.10;99.90;;;;;;5015168;28;20417;-72
2023/08/16 10:51:43;;;;;;;5.13;1.30;;;24.30;99.90;;;;;;5031958;28;20497;-73
2023/08/16 10:54:09;;;;;;;4.30;1.50;;;24.20;99.90;;;;;;5052091;28;20965;-74
2023/08/16 10:56:49;;;;;;;3.10;1.40;;;24.10;99.90;;;;;;5048874;28;20409;-74
2023/08/16 10:59:15;;;;;;;4.22;1.50;;;24.40;99.90;;;;;;5015640;28;20498;-76
2023/08/16 11:01:53;;;;;;;3.88;1.35;;;24.60;99.90;;;;;;4999820;28;20738;-75
2023/08/16 11:04:19;;;;;;;5.78;1.73;;;24.60;99.90;;;;;;5033321;28;20746;-74
2023/08/16 11:06:46;;;;;;;3.78;1.70;;;24.60;99.90;;;;;;5051114;28;20418;-74
2023/08/16 11:09:12;;;;;;;3.13;1.23;;;24.80;99.90;;;;;;5006998;28;20404;-74
2023/08/16 11:11:46;;;;;;;3.58;1.58;;;24.60;99.90;;;;;;5037001;28;20421;-74
2023/08/16 11:14:12;;;;;;;4.97;1.65;;;24.50;99.90;;;;;;5039974;28;20425;-74
2023/08/16 11:16:38;;;;;;;4.50;1.70;;;24.40;99.90;;;;;;5035877;28;20518;-74
2023/08/16 11:19:06;;;;;;;3.70;1.50;;;24.10;99.90;;;;;;5036443;28;20508;-74
2023/08/16 11:21:34;;;;;;;3.40;1.48;;;24.00;99.90;;;;;;5035454;28;20462;-74
2023/08/16 11:24:02;;;;;;;4.15;1.67;;;23.90;99.90;;;;;;5062769;28;20490;-74
2023/08/16 11:26:36;;;;;;;2.83;1.40;;;24.00;99.90;;;;;;5015530;28;20609;-74
2023/08/16 11:29:02;;;;;;;2.65;1.30;;;24.10;99.90;;;;;;5025616;28;20421;-74
2023/08/16 11:31:28;;;;;;;4.40;1.60;;;24.30;99.90;;;;;;5035133;28;20413;-74
2023/08/16 11:33:53;;;;;;;3.10;1.30;;;24.60;99.90;;;;;;5048992;28;20431;-72
2023/08/16 11:36:19;;;;;;;4.00;1.40;;;24.80;99.90;;;;;;5034921;28;20429;-74
2023/08/16 11:38:48;;;;;;;2.70;1.40;;;24.60;99.90;;;;;;5037873;28;20781;-74
2023/08/16 11:41:18;;;;;;;3.25;1.50;;;24.70;99.90;;;;;;5035399;28;20435;-74
2023/08/16 11:43:44;;;;;;;3.70;1.42;;;24.70;99.90;;;;;;5029041;28;20451;-75
2023/08/16 11:46:09;;;;;;;3.40;1.50;;;24.70;99.90;;;;;;5037117;28;20988;-73
2023/08/16 11:48:36;;;;;;;7.03;1.67;;;24.80;99.90;;;;;;5050137;28;20425;-74
2023/08/16 11:51:02;;;;;;;3.67;1.60;;;24.60;99.90;;;;;;5050747;28;20415;-74
2023/08/16 11:53:32;;;;;;;5.95;1.73;;;24.80;99.90;;;;;;5069497;28;20420;-74
2023/08/16 11:56:00;;;;;;;3.13;1.40;;;25.10;99.90;;;;;;5043566;28;20419;-74
2023/08/16 11:58:26;;;;;;;3.37;1.60;;;25.40;99.90;;;;;;5034815;28;20432;-74
2023/08/16 12:00:52;;;;;;;2.67;1.45;;;25.50;99.90;;;;;;4998800;28;20419;-74
2023/08/16 12:03:18;;;;;;;2.90;1.50;;;25.60;99.90;;;;;;5035618;28;20988;-75
2023/08/16 12:05:49;;;;;;;4.22;1.40;;;25.60;99.90;;;;;;5034674;28;20454;-75
2023/08/16 12:08:20;;;;;;;3.20;1.40;;;25.50;99.90;;;;;;5051047;28;20439;-74
2023/08/16 12:10:54;;;;;;;2.85;1.45;;;25.20;99.90;;;;;;5048128;28;20424;-74
2023/08/16 12:13:21;;;;;;;2.83;1.50;;;25.00;99.90;;;;;;5052230;28;20463;-74
2023/08/16 12:15:48;;;;;;;3.97;1.50;;;24.80;99.90;;;;;;5048549;28;20425;-74
2023/08/16 12:18:20;;;;;;;2.17;1.20;;;25.30;99.90;;;;;;5048877;28;20427;-74
2023/08/16 12:20:52;;;;;;;2.77;1.40;;;25.40;99.90;;;;;;5018473;28;20906;-73
2023/08/16 12:23:20;;;;;;;3.40;1.42;;;25.50;99.90;;;;;;5030228;28;20506;-74
2023/08/16 12:25:46;;;;;;;2.17;1.20;;;26.00;99.90;;;;;;5020072;28;20754;-75
2023/08/16 12:28:12;;;;;;;3.28;1.33;;;26.10;99.90;;;;;;5047481;28;20426;-74
2023/08/16 12:30:37;;;;;;;3.20;1.55;;;26.30;99.90;;;;;;5035120;28;20848;-73
2023/08/16 12:33:04;;;;;;;3.13;1.60;;;26.30;99.90;;;;;;5040297;28;20424;-74
2023/08/16 12:35:30;;;;;;;3.58;1.30;;;26.50;99.90;;;;;;5044376;28;20840;-74
2023/08/16 12:37:56;;;;;;;3.10;1.40;;;26.30;99.90;;;;;;5053817;28;20493;-74
2023/08/16 12:40:28;;;;;;;4.05;1.40;;;26.20;99.90;;;;;;5045258;28;20419;-74
2023/08/16 12:42:54;;;;;;;2.90;1.27;;;25.90;99.90;;;;;;5027226;28;20429;-74